Capitol Logistics 441


KSLC
Salt Lake City International Airport
Salt Lake City, Utah, US
KRFD
Chicago/Rockford International Airport
Rockford, Illinois, US

Activity Log

Date Flight Route Aircraft Duration
02/11/2020 CPX441 RUGGD1 OCS KURSE Q122 FOD BHAWK RFD B738 2h 35m
06/16/2019 CPX441 RUGGD1 OCS KURSE Q122 FOD BHAWK RFD B752 2h 35m
02/25/2019 CPX441 RUGGD1 OCS KURSE Q122 FOD BHAWK RFD B752 2h 14m
02/04/2019 CPX441 RUGGD1 OCS KURSE Q122 FOD BHAWK RFD B752 2h 27m

Route Details

Aircraft Information
Primary: Boeing 757-200SF
Backup: Boeing 737-800BCF
Route Data
Distance: 1031nm
Sched. Duration: 2h 20m
Avg. Duration: 2h 28m (+8m)
Times Flown: 4
Recm'd Route: RUGGD1 OCS KURSE Q122 FOD BHAWK RFD
Planned Altitude: 37,000ft
Origin Wx: KSLC 281954Z 16007KT 10SM SCT200 13/M08 A3030 RMK AO2 SLP253 T01281083
Dest. Wx: KRFD 281954Z 30013KT 10SM BKN036 M03/M13 A3007 RMK AO2 SLP193 T10281128
Notes:

Financial History
Total Freight: 190,108lbs
Average Load: 47,527lbs/flt
Fuel Used: 63,161lbs
Avg. Fuel Used: 15,790lbs/flt
Fuel Expense: $54,318
Avg. Fuel Expense: $13,580
Avg. Fuel Cost: $0.86/lbs
Total Gross Income: $249,632
Pilot Pay: $926
Total Expenses: $27,168
Total Revenue: $165,837
Average Revenue: $62,408.07